Weather History for KFWC - March, 2014

Change the Weather History Date:

Sunday, March 16, 2014

  Actual Average (KMVN) Record (KMVN)
Temperature  
Mean Temperature 40 °F -  
Max Temperature 51 °F 50 °F 75 °F (2012)
Min Temperature 28 °F 32 °F 17 °F (1997)
Degree Days  
Heating Degree Days 24    
Moisture  
Dew Point 27 °F    
Average Humidity 65    
Maximum Humidity 76    
Minimum Humidity 52    
Precipitation  
Precipitation 0.00 in - - ()
Sea Level Pressure  
Sea Level Pressure 29.98 in    
Wind  
Wind Speed 18 mph (NE)    
Max Wind Speed 31 mph    
Max Gust Speed 38 mph    
Visibility 10 miles    
Events Rain    
Averages and records for this station are not official NWS values.
T = Trace of Precipitation, MM = Missing Value Source: NWS Daily Summary

Daily Weather History Graph

Daily Weather History Graph

Search for Another Location

Airport or City:

Trip Planner

Search our weather history database for the weather conditions in past years. The results will help you decide how hot, cold, wet, or windy it might be!

Date:

Astronomy

Mar. 16, 2014 Rise Set
Actual Time 7:03 AM CDT 7:01 PM CDT
Civil Twilight 6:36 AM CDT 7:28 PM CDT
Nautical Twilight 6:06 AM CDT 7:58 PM CDT
Astronomical Twilight 5:35 AM CDT 8:30 PM CDT
Moon 7:18 PM CDT (3/16) 6:46 AM CDT (3/16)
Length of Visible Light 12h 51m
Length of Day
11h 58m
Full, 100% of the Moon is Illuminated
Mar 16
Full
Mar 16
Full
Mar 23
Last Quarter
Mar 30
New
Apr 7
First Quarter

Hourly Weather History & Observations

Time (CDT) Temp. Windchill Dew Point Humidity Pressure Visibility Wind Dir Wind Speed Gust Speed Precip Events Conditions
12:15 AM 51.8 °F - 35.6 °F 54% 29.97 in 5.0 mi NE 10.4 mph - N/A   Haze
12:35 AM 50.0 °F - 35.6 °F 58% 29.97 in 3.0 mi NE 12.7 mph - N/A   Haze
1:15 AM 48.2 °F - 33.8 °F 58% 29.98 in 7.0 mi NE 12.7 mph - N/A   Mostly Cloudy
1:35 AM 48.2 °F - 33.8 °F 58% 29.98 in 7.0 mi NE 12.7 mph - N/A   Mostly Cloudy
1:55 AM 48.2 °F - 33.8 °F 58% 29.97 in 10.0 mi NE 15.0 mph 23.0 mph N/A   Scattered Clouds
2:15 AM 46.4 °F 39.8 °F 33.8 °F 62% 29.97 in 10.0 mi ENE 16.1 mph 24.2 mph N/A   Scattered Clouds
2:35 AM 46.4 °F 39.8 °F 33.8 °F 62% 29.97 in 10.0 mi NE 16.1 mph - N/A   Scattered Clouds
2:55 AM 46.4 °F 39.8 °F 33.8 °F 62% 29.97 in 10.0 mi NE 16.1 mph - N/A   Mostly Cloudy
3:15 AM 46.4 °F 39.0 °F 33.8 °F 62% 29.96 in 10.0 mi NE 19.6 mph - N/A   Overcast
3:35 AM 44.6 °F 37.2 °F 33.8 °F 66% 29.96 in 10.0 mi NE 17.3 mph 21.9 mph N/A   Overcast
3:55 AM 44.6 °F 37.8 °F 33.8 °F 66% 29.96 in 10.0 mi NE 15.0 mph 26.5 mph N/A   Overcast
4:15 AM 44.6 °F 37.4 °F 33.8 °F 66% 29.95 in 10.0 mi NE 16.1 mph 25.3 mph N/A   Light Drizzle
4:35 AM 42.8 °F 34.3 °F 33.8 °F 70% 29.95 in 10.0 mi NE 19.6 mph 24.2 mph N/A   Light Drizzle
4:55 AM 42.8 °F 34.0 °F 33.8 °F 70% 29.94 in 10.0 mi NE 20.7 mph 28.8 mph N/A   Overcast
5:15 AM 41.0 °F 31.6 °F 33.8 °F 76% 29.94 in 10.0 mi NE 20.7 mph 27.6 mph N/A   Overcast
5:35 AM 41.0 °F 31.9 °F 32.0 °F 70% 29.94 in 10.0 mi NE 19.6 mph 28.8 mph N/A   Overcast
5:55 AM 39.2 °F 29.0 °F 30.2 °F 70% 29.94 in 10.0 mi NE 21.9 mph 28.8 mph N/A   Overcast
6:15 AM 39.2 °F 28.0 °F 30.2 °F 70% 29.94 in 10.0 mi NE 26.5 mph 34.5 mph N/A   Overcast
6:35 AM 39.2 °F 28.7 °F 30.2 °F 70% 29.94 in 10.0 mi NE 23.0 mph 32.2 mph N/A   Overcast
7:15 AM 37.4 °F 25.9 °F 28.4 °F 70% 29.94 in 10.0 mi NE 25.3 mph 32.2 mph N/A   Overcast
7:35 AM 37.4 °F 25.9 °F 26.6 °F 65% 29.95 in 10.0 mi NE 25.3 mph 32.2 mph N/A   Overcast
7:55 AM 37.4 °F 26.4 °F 26.6 °F 65% 29.95 in 10.0 mi NE 23.0 mph 33.4 mph N/A   Overcast
8:15 AM 37.4 °F 27.2 °F 26.6 °F 65% 29.96 in 10.0 mi NE 19.6 mph 32.2 mph N/A   Mostly Cloudy
8:35 AM 37.4 °F 25.2 °F 26.6 °F 65% 29.97 in 10.0 mi NE 28.8 mph 38.0 mph N/A   Scattered Clouds
8:55 AM 37.4 °F 25.6 °F 26.6 °F 65% 29.99 in 10.0 mi NE 26.5 mph 35.7 mph N/A   Clear
9:15 AM 37.4 °F 26.1 °F 26.6 °F 65% 30.01 in 10.0 mi NE 24.2 mph 36.8 mph N/A   Clear
9:35 AM 37.4 °F 25.9 °F 26.6 °F 65% 30.01 in 10.0 mi NE 25.3 mph 33.4 mph N/A   Clear
9:55 AM 37.4 °F 24.8 °F 26.6 °F 65% 30.02 in 10.0 mi NE 31.1 mph 36.8 mph N/A   Scattered Clouds
10:15 AM 37.4 °F 28.5 °F 26.6 °F 65% 30.03 in 10.0 mi NE 15.0 mph 31.1 mph N/A   Scattered Clouds
10:35 AM 35.6 °F 24.8 °F 26.6 °F 70% 30.02 in 10.0 mi NE 19.6 mph 31.1 mph N/A   Drizzle
10:55 AM 35.6 °F 24.2 °F 26.6 °F 70% 30.02 in 10.0 mi NE 21.9 mph 26.5 mph N/A   Light Drizzle
11:15 AM 35.6 °F 23.7 °F 26.6 °F 70% 30.02 in 10.0 mi NE 24.2 mph 33.4 mph N/A   Light Drizzle
11:35 AM 37.4 °F 27.8 °F 26.6 °F 65% 30.01 in 10.0 mi NE 17.3 mph 28.8 mph N/A   Light Drizzle
11:55 AM 35.6 °F 24.2 °F 26.6 °F 70% 30.02 in 10.0 mi NE 21.9 mph 31.1 mph N/A   Light Drizzle
12:15 PM 35.6 °F 23.7 °F 28.4 °F 75% 30.01 in 10.0 mi NE 24.2 mph 28.8 mph N/A Rain Light Rain
12:35 PM 35.6 °F 24.5 °F 28.4 °F 75% 30.00 in 7.0 mi NE 20.7 mph 32.2 mph N/A   Mostly Cloudy
12:55 PM 35.6 °F 25.5 °F 28.4 °F 75% 30.00 in 10.0 mi NE 17.3 mph 25.3 mph N/A   Mostly Cloudy
1:15 PM 35.6 °F 25.2 °F 28.4 °F 75% 30.00 in 10.0 mi NE 18.4 mph 31.1 mph N/A   Mostly Cloudy
1:55 PM 35.6 °F 23.7 °F 28.4 °F 75% 29.97 in 10.0 mi NNE 24.2 mph 29.9 mph N/A Rain Light Rain
2:15 PM 35.6 °F 24.8 °F 26.6 °F 70% 29.97 in 10.0 mi NNE 19.6 mph 31.1 mph N/A   Light Drizzle
2:35 PM 37.4 °F 27.8 °F 28.4 °F 70% 29.96 in 10.0 mi NNE 17.3 mph 26.5 mph N/A Rain Light Rain
2:55 PM 37.4 °F 28.2 °F 26.6 °F 65% 29.96 in 10.0 mi NNE 16.1 mph 28.8 mph N/A   Scattered Clouds
3:15 PM 37.4 °F 26.9 °F 24.8 °F 60% 29.96 in 10.0 mi NNE 20.7 mph 25.3 mph N/A   Clear
3:35 PM 37.4 °F 26.1 °F 24.8 °F 60% 29.96 in 10.0 mi NNE 24.2 mph 28.8 mph N/A   Scattered Clouds
3:55 PM 39.2 °F 30.2 °F 26.6 °F 61% 29.96 in 10.0 mi NNE 17.3 mph 29.9 mph N/A   Scattered Clouds
4:15 PM 39.2 °F 29.3 °F 24.8 °F 56% 29.96 in 10.0 mi NNE 20.7 mph 26.5 mph N/A   Scattered Clouds
4:35 PM 37.4 °F 26.9 °F 23.0 °F 56% 29.96 in 10.0 mi NNE 20.7 mph 27.6 mph N/A   Mostly Cloudy
4:55 PM 37.4 °F 27.2 °F 21.2 °F 52% 29.96 in 10.0 mi NNE 19.6 mph 29.9 mph N/A   Scattered Clouds
5:15 PM 37.4 °F 27.8 °F 21.2 °F 52% 29.96 in 10.0 mi NNE 17.3 mph 28.8 mph N/A   Mostly Cloudy
5:35 PM 37.4 °F 28.2 °F 23.0 °F 56% 29.97 in 10.0 mi NNE 16.1 mph 25.3 mph N/A   Overcast
5:55 PM 35.6 °F 25.2 °F 24.8 °F 65% 29.97 in 10.0 mi North 18.4 mph 26.5 mph N/A   Overcast
6:15 PM 35.6 °F 24.2 °F 23.0 °F 60% 29.98 in 10.0 mi NNE 21.9 mph 26.5 mph N/A   Overcast
6:35 PM 35.6 °F 25.2 °F 23.0 °F 60% 29.98 in 10.0 mi North 18.4 mph 27.6 mph N/A   Overcast
6:55 PM 35.6 °F 25.2 °F 23.0 °F 60% 29.98 in 10.0 mi North 18.4 mph 24.2 mph N/A   Overcast
7:15 PM 33.8 °F 23.2 °F 23.0 °F 65% 29.99 in 10.0 mi NNE 17.3 mph 23.0 mph N/A   Overcast
7:35 PM 33.8 °F 23.5 °F 21.2 °F 60% 29.99 in 10.0 mi NNE 16.1 mph 25.3 mph N/A   Overcast
7:55 PM 33.8 °F 23.2 °F 21.2 °F 60% 29.99 in 10.0 mi North 17.3 mph 24.2 mph N/A   Overcast
8:15 PM 33.8 °F 23.2 °F 21.2 °F 60% 30.00 in 10.0 mi NNE 17.3 mph 24.2 mph N/A   Overcast
8:35 PM 32.0 °F 21.2 °F 21.2 °F 64% 30.01 in 10.0 mi NNE 16.1 mph 20.7 mph N/A   Overcast
8:55 PM 32.0 °F 20.8 °F 21.2 °F 64% 30.01 in 10.0 mi North 17.3 mph - N/A   Overcast
9:15 PM 30.2 °F 18.5 °F 21.2 °F 69% 30.02 in 10.0 mi NNE 17.3 mph 26.5 mph N/A   Overcast
9:35 PM 30.2 °F 18.9 °F 19.4 °F 64% 30.02 in 10.0 mi NNE 16.1 mph 24.2 mph N/A   Overcast
9:55 PM 30.2 °F 19.3 °F 19.4 °F 64% 30.02 in 10.0 mi North 15.0 mph 24.2 mph N/A   Overcast
10:15 PM 30.2 °F 18.5 °F 19.4 °F 64% 30.02 in 10.0 mi NNE 17.3 mph 23.0 mph N/A   Overcast
10:35 PM 30.2 °F 18.5 °F 19.4 °F 64% 30.02 in 10.0 mi NNE 17.3 mph 24.2 mph N/A   Overcast
10:55 PM 30.2 °F 18.5 °F 17.6 °F 60% 30.02 in 10.0 mi NNE 17.3 mph 23.0 mph N/A   Overcast
11:15 PM 30.2 °F 20.8 °F 19.4 °F 64% 30.02 in 10.0 mi NNE 11.5 mph - N/A   Overcast
11:35 PM 30.2 °F 19.8 °F 17.6 °F 60% 30.02 in 10.0 mi NNE 13.8 mph - N/A   Overcast
11:55 PM 28.4 °F 16.6 °F 17.6 °F 64% 30.01 in 10.0 mi North 16.1 mph 20.7 mph N/A   Mostly Cloudy